createdAt,value
2022-12-03T00:00:08.905Z,1.8
2022-12-03T00:02:05.815Z,1.8
2022-12-03T00:04:07.783Z,1.8
2022-12-03T00:06:09.719Z,1.8
2022-12-03T00:08:11.753Z,1.8
2022-12-03T00:10:16.883Z,1.8
2022-12-03T00:12:18.895Z,1.8
2022-12-03T00:14:20.891Z,1.8
2022-12-03T00:16:22.973Z,1.8
2022-12-03T00:18:24.914Z,1.8
2022-12-03T00:20:27.034Z,1.8
2022-12-03T00:22:28.931Z,1.8
2022-12-03T00:24:34.121Z,1.8
2022-12-03T00:26:36.072Z,1.8
2022-12-03T00:28:38.121Z,1.8
2022-12-03T00:30:40.176Z,1.8
2022-12-03T00:32:42.108Z,1.8
2022-12-03T00:34:44.133Z,1.8
2022-12-03T00:36:46.122Z,1.8
2022-12-03T00:38:51.279Z,1.8
2022-12-03T00:40:53.281Z,1.8
2022-12-03T00:42:55.318Z,1.8
2022-12-03T00:43:57.897Z,1.8
2022-12-03T00:48:01.915Z,1.8
2022-12-03T00:50:03.940Z,1.8
2022-12-03T00:52:09.115Z,1.8
2022-12-03T00:54:11.092Z,1.8
2022-12-03T00:56:13.078Z,1.9
2022-12-03T01:00:17.090Z,1.9
2022-12-03T01:06:26.297Z,1.8
2022-12-03T01:08:28.314Z,1.8
2022-12-03T01:10:30.303Z,1.8
2022-12-03T01:12:32.342Z,1.8
2022-12-03T01:14:34.347Z,1.9
2022-12-03T01:16:36.401Z,1.9
2022-12-03T01:18:38.346Z,1.9
2022-12-03T01:20:43.514Z,1.9
2022-12-03T01:22:45.536Z,1.9
2022-12-03T01:24:47.545Z,1.9
2022-12-03T01:26:49.526Z,1.9
2022-12-03T01:28:51.542Z,1.9
2022-12-03T01:30:53.666Z,1.9
2022-12-03T01:32:55.583Z,1.9
2022-12-03T01:35:00.726Z,1.9
2022-12-03T01:37:02.724Z,1.9
2022-12-03T01:39:04.730Z,1.9
2022-12-03T01:40:07.334Z,2
2022-12-03T01:42:09.353Z,1.9
2022-12-03T01:44:11.347Z,2
2022-12-03T01:46:13.408Z,1.9
2022-12-03T01:48:18.526Z,1.9
2022-12-03T01:50:20.546Z,1.9
2022-12-03T01:52:22.539Z,1.9
2022-12-03T01:54:24.559Z,2
2022-12-03T01:56:26.543Z,2
2022-12-03T01:58:28.585Z,1.9
2022-12-03T02:00:30.566Z,2
2022-12-03T02:10:43.806Z,2
2022-12-03T02:14:47.803Z,2
2022-12-03T02:16:53.000Z,2
2022-12-03T02:18:55.025Z,2
2022-12-03T02:20:57.044Z,2
2022-12-03T02:22:59.063Z,2.1
2022-12-03T02:27:03.100Z,2
2022-12-03T02:29:05.072Z,2.1
2022-12-03T02:31:10.317Z,2.1
2022-12-03T02:33:12.273Z,2
2022-12-03T02:35:14.258Z,2
2022-12-03T02:36:16.860Z,2
2022-12-03T02:38:18.851Z,2.1
2022-12-03T02:40:20.922Z,2
2022-12-03T02:42:22.922Z,2
2022-12-03T02:44:28.097Z,2.1
2022-12-03T02:46:30.113Z,2
2022-12-03T02:48:32.092Z,2.1
2022-12-03T02:50:34.121Z,2.1
2022-12-03T02:52:36.184Z,2.1
2022-12-03T02:54:38.144Z,2.1
2022-12-03T02:56:40.199Z,2.1
2022-12-03T02:58:45.350Z,2.1
2022-12-03T03:00:47.356Z,2.1
2022-12-03T03:02:49.382Z,2.1
2022-12-03T03:04:51.778Z,2.1
2022-12-03T03:06:53.395Z,2.1
2022-12-03T03:08:55.402Z,2.1
2022-12-03T03:10:57.432Z,2.1
2022-12-03T03:13:02.586Z,2.1
2022-12-03T03:15:04.590Z,2.1
2022-12-03T03:17:06.601Z,2.1
2022-12-03T03:19:08.646Z,2.1
2022-12-03T03:21:10.637Z,2.1
2022-12-03T03:23:12.665Z,2.1
2022-12-03T03:25:14.667Z,2.1
2022-12-03T03:27:19.820Z,2.1
2022-12-03T03:29:23.374Z,2.1
2022-12-03T03:31:25.450Z,2.1
2022-12-03T03:33:48.519Z,2.1
2022-12-03T03:37:52.508Z,2.1
2022-12-03T03:44:01.663Z,2.1
2022-12-03T03:46:03.838Z,2.1
2022-12-03T03:48:05.707Z,2.1
2022-12-03T03:50:07.749Z,2.1
2022-12-03T03:54:14.914Z,2.1
2022-12-03T03:56:16.930Z,2.1
2022-12-03T04:00:20.965Z,2
2022-12-03T04:02:22.992Z,2
2022-12-03T04:04:25.061Z,2
2022-12-03T04:06:26.991Z,2
2022-12-03T04:08:32.169Z,2
2022-12-03T04:10:34.177Z,2
2022-12-03T04:12:36.203Z,2
2022-12-03T04:14:38.210Z,2
2022-12-03T04:16:40.266Z,2
2022-12-03T04:18:42.252Z,2
2022-12-03T04:20:44.271Z,2
2022-12-03T04:22:49.430Z,2
2022-12-03T04:24:51.714Z,2
2022-12-03T04:26:53.455Z,2
2022-12-03T04:27:56.024Z,2
2022-12-03T04:29:58.057Z,2
2022-12-03T04:32:00.091Z,1.9
2022-12-03T04:42:13.294Z,1.9
2022-12-03T04:48:19.313Z,2
2022-12-03T04:50:24.495Z,1.9
2022-12-03T04:52:26.506Z,1.9
2022-12-03T04:54:28.495Z,1.9
2022-12-03T04:58:32.539Z,1.9
2022-12-03T05:00:34.552Z,1.9
2022-12-03T05:02:36.648Z,1.9
2022-12-03T05:04:41.715Z,1.9
2022-12-03T05:06:43.726Z,1.9
2022-12-03T05:08:45.737Z,1.9
2022-12-03T05:14:52.230Z,1.9
2022-12-03T05:16:53.875Z,1.9
2022-12-03T05:18:58.962Z,1.9
2022-12-03T05:21:00.966Z,1.9
2022-12-03T05:23:02.963Z,1.9
2022-12-03T05:26:07.577Z,1.9
2022-12-03T05:28:09.563Z,1.9
2022-12-03T05:30:11.604Z,1.9
2022-12-03T05:32:16.726Z,1.8
2022-12-03T05:34:18.733Z,1.8
2022-12-03T05:36:20.735Z,1.8
2022-12-03T05:38:22.774Z,1.8
2022-12-03T05:40:24.766Z,1.8
2022-12-03T05:42:26.795Z,1.7
2022-12-03T05:44:28.802Z,1.7
2022-12-03T05:46:34.094Z,1.7
2022-12-03T05:48:35.989Z,1.7
2022-12-03T05:50:38.049Z,1.7
2022-12-03T05:58:46.070Z,1.6
2022-12-03T06:02:53.447Z,1.6
2022-12-03T06:04:55.482Z,1.6
2022-12-03T06:06:57.270Z,1.6
2022-12-03T06:08:59.265Z,1.6
2022-12-03T06:13:03.315Z,1.6
2022-12-03T06:15:08.467Z,1.6
2022-12-03T06:17:10.471Z,1.6
2022-12-03T06:19:12.497Z,1.6
2022-12-03T06:20:15.112Z,1.5
2022-12-03T06:22:17.083Z,1.6
2022-12-03T06:24:19.105Z,1.5
2022-12-03T06:26:21.120Z,1.6
2022-12-03T06:28:26.282Z,1.5
2022-12-03T06:30:28.299Z,1.5
2022-12-03T06:32:30.290Z,1.5
2022-12-03T06:34:32.303Z,1.5
2022-12-03T06:36:34.333Z,1.5
2022-12-03T06:38:36.357Z,1.5
2022-12-03T06:40:38.351Z,1.5
2022-12-03T06:42:43.502Z,1.5
2022-12-03T06:44:45.507Z,1.5
2022-12-03T06:46:47.584Z,1.5
2022-12-03T06:48:49.559Z,1.4
2022-12-03T06:50:51.581Z,1.5
2022-12-03T06:52:53.627Z,1.5
2022-12-03T06:54:56.008Z,1.5
2022-12-03T06:57:00.738Z,1.5
2022-12-03T06:59:02.755Z,1.4
2022-12-03T07:01:04.772Z,1.4
2022-12-03T07:03:06.816Z,1.4
2022-12-03T07:05:08.784Z,1.5
2022-12-03T07:07:10.781Z,1.4
2022-12-03T07:09:12.818Z,1.5
2022-12-03T07:13:19.971Z,1.4
2022-12-03T07:15:21.974Z,1.4
2022-12-03T07:17:45.042Z,1.4
2022-12-03T07:19:47.045Z,1.4
2022-12-03T07:21:49.045Z,1.4
2022-12-03T07:23:54.214Z,1.5
2022-12-03T07:25:56.256Z,1.5
2022-12-03T07:27:58.278Z,1.5
2022-12-03T07:30:00.254Z,1.4
2022-12-03T07:32:02.311Z,1.4
2022-12-03T07:34:04.259Z,1.4
2022-12-03T07:36:06.269Z,1.4
2022-12-03T07:38:11.431Z,1.4
2022-12-03T07:40:13.431Z,1.4
2022-12-03T07:42:15.478Z,1.4
2022-12-03T07:44:17.445Z,1.4
2022-12-03T07:46:19.474Z,1.4
2022-12-03T07:48:21.523Z,1.4
2022-12-03T07:50:23.485Z,1.4
2022-12-03T07:52:28.615Z,1.4
2022-12-03T07:54:30.633Z,1.4
2022-12-03T07:56:32.649Z,1.4
2022-12-03T07:58:34.659Z,1.3
2022-12-03T08:00:36.670Z,1.4
2022-12-03T08:02:38.694Z,1.3
2022-12-03T08:04:40.661Z,1.4
2022-12-03T08:06:45.818Z,1.4
2022-12-03T08:08:47.813Z,1.3
2022-12-03T08:10:49.834Z,1.3
2022-12-03T08:11:52.396Z,1.3
2022-12-03T08:15:56.473Z,1.4
2022-12-03T08:17:58.402Z,1.4
2022-12-03T08:20:03.565Z,1.3
2022-12-03T08:22:05.546Z,1.3
2022-12-03T08:24:07.539Z,1.4
2022-12-03T08:26:09.552Z,1.4
2022-12-03T08:28:11.530Z,1.4
2022-12-03T08:30:13.550Z,1.3
2022-12-03T08:32:15.659Z,1.3
2022-12-03T08:34:20.687Z,1.3
2022-12-03T08:36:22.729Z,1.3
2022-12-03T08:38:24.708Z,1.3
2022-12-03T08:40:26.689Z,1.3
2022-12-03T08:42:28.699Z,1.2
2022-12-03T08:44:30.697Z,1.2
2022-12-03T08:46:32.697Z,1.2
2022-12-03T08:48:40.785Z,1.2
2022-12-03T08:50:40.804Z,1.2
2022-12-03T08:52:42.792Z,1.2
2022-12-03T08:54:44.794Z,1.2
2022-12-03T08:56:46.816Z,1.3
2022-12-03T08:58:48.997Z,1.2
2022-12-03T09:00:50.879Z,1.3
2022-12-03T09:02:55.937Z,1.2
2022-12-03T09:04:57.941Z,1.2
2022-12-03T09:06:59.945Z,1.2
2022-12-03T09:08:02.594Z,1.3
2022-12-03T09:10:04.532Z,1.3
2022-12-03T09:12:06.518Z,1.3
2022-12-03T09:14:11.434Z,1.3
2022-12-03T09:16:13.740Z,1.4
2022-12-03T09:18:15.695Z,1.4
2022-12-03T09:20:19.202Z,1.3
2022-12-03T09:24:23.166Z,1.2
2022-12-03T09:26:25.163Z,1.2
2022-12-03T09:30:32.297Z,1.2
2022-12-03T09:32:34.338Z,1.2
2022-12-03T09:34:36.282Z,1.2
2022-12-03T09:36:38.262Z,1.2
2022-12-03T09:38:45.999Z,1.2
2022-12-03T09:40:42.308Z,1.2
2022-12-03T09:42:44.279Z,1.2
2022-12-03T09:44:49.441Z,1.2
2022-12-03T09:46:51.436Z,1.2
2022-12-03T09:48:53.415Z,1.2
2022-12-03T09:50:55.403Z,1.2
2022-12-03T09:52:57.380Z,1.1
2022-12-03T09:54:59.407Z,1.2
2022-12-03T09:59:06.532Z,1.1
2022-12-03T10:03:10.516Z,1.1
2022-12-03T10:04:13.231Z,1.1
2022-12-03T10:06:15.108Z,1.1
2022-12-03T10:08:17.104Z,1.1
2022-12-03T10:10:19.163Z,1.1
2022-12-03T10:14:26.224Z,1
2022-12-03T10:24:36.188Z,0.9
2022-12-03T10:26:41.334Z,1
2022-12-03T10:30:45.362Z,1
2022-12-03T10:32:47.324Z,0.9
2022-12-03T10:43:00.503Z,1
2022-12-03T10:45:02.453Z,1
2022-12-03T10:49:06.447Z,0.9
2022-12-03T10:51:08.435Z,0.9
2022-12-03T10:55:15.553Z,0.9
2022-12-03T10:59:19.541Z,0.9
2022-12-03T11:05:45.530Z,1
2022-12-03T11:07:50.816Z,0.9
2022-12-03T11:09:52.653Z,0.9
2022-12-03T11:11:54.678Z,0.9
2022-12-03T11:13:56.662Z,0.9
2022-12-03T11:18:00.645Z,0.9
2022-12-03T11:20:02.676Z,0.9
2022-12-03T11:22:07.806Z,1
2022-12-03T11:24:09.783Z,1
2022-12-03T11:26:17.088Z,1
2022-12-03T11:28:13.770Z,1.1
2022-12-03T11:30:15.766Z,1
2022-12-03T11:32:17.760Z,1
2022-12-03T11:34:19.814Z,0.9
2022-12-03T11:36:47.666Z,0.9
2022-12-03T11:38:26.903Z,0.9
2022-12-03T11:40:28.877Z,0.9
2022-12-03T11:42:30.875Z,0.9
2022-12-03T11:44:32.919Z,0.9
2022-12-03T11:48:36.841Z,0.8
2022-12-03T11:50:42.001Z,0.8
2022-12-03T11:52:44.005Z,0.8
2022-12-03T11:54:45.979Z,0.8
2022-12-03T12:01:54.517Z,0.8
2022-12-03T12:06:01.656Z,0.8
2022-12-03T12:08:03.681Z,0.8
2022-12-03T12:10:05.654Z,0.6
2022-12-03T12:12:07.636Z,0.6
2022-12-03T12:14:09.626Z,0.6
2022-12-03T12:16:11.688Z,0.6
2022-12-03T12:18:16.776Z,0.5
2022-12-03T12:20:18.779Z,0.5
2022-12-03T12:22:20.758Z,0.5
2022-12-03T12:24:22.725Z,0.5
2022-12-03T12:26:24.714Z,0.5
2022-12-03T12:28:26.705Z,0.5
2022-12-03T12:30:28.699Z,0.5
2022-12-03T12:32:33.817Z,0.4
2022-12-03T12:34:35.795Z,0.4
2022-12-03T12:36:37.779Z,0.4
2022-12-03T12:38:39.773Z,0.4
2022-12-03T12:40:41.945Z,0.4
2022-12-03T12:42:43.752Z,0.4
2022-12-03T12:44:45.714Z,0.4
2022-12-03T12:46:50.986Z,0.5
2022-12-03T12:48:57.944Z,0.5
2022-12-03T12:51:57.407Z,0.5
2022-12-03T12:53:59.327Z,0.5
2022-12-03T12:56:01.319Z,0.5
2022-12-03T12:58:03.303Z,0.6
2022-12-03T13:00:08.449Z,0.5
2022-12-03T13:02:10.502Z,0.5
2022-12-03T13:04:12.396Z,0.5
2022-12-03T13:06:14.413Z,0.5
2022-12-03T13:08:16.433Z,0.6
2022-12-03T13:10:18.358Z,0.6
2022-12-03T13:12:20.320Z,0.6
2022-12-03T13:14:25.461Z,0.6
2022-12-03T13:16:27.768Z,0.6
2022-12-03T13:18:29.427Z,0.6
2022-12-03T13:20:31.429Z,0.7
2022-12-03T13:22:33.372Z,0.6
2022-12-03T13:24:35.366Z,0.6
2022-12-03T13:26:39.279Z,0.7
2022-12-03T13:30:44.488Z,0.7
2022-12-03T13:32:46.452Z,0.7
2022-12-03T13:34:48.423Z,0.7
2022-12-03T13:36:57.117Z,0.7
2022-12-03T13:38:52.421Z,0.6
2022-12-03T13:40:54.399Z,0.7
2022-12-03T13:42:59.560Z,0.6
2022-12-03T13:45:01.500Z,0.6
2022-12-03T13:48:06.896Z,0.6
2022-12-03T13:50:08.924Z,0.7
2022-12-03T13:52:10.851Z,0.7
2022-12-03T13:54:15.867Z,0.7
2022-12-03T13:58:19.975Z,0.7
2022-12-03T14:04:25.930Z,0.7
2022-12-03T14:06:27.954Z,0.6
2022-12-03T14:12:37.050Z,0.5
2022-12-03T14:14:39.031Z,0.5
2022-12-03T14:16:41.105Z,0.5
2022-12-03T14:18:43.064Z,0.5
2022-12-03T14:20:45.037Z,0.5
2022-12-03T14:22:46.986Z,0.5
2022-12-03T14:24:52.133Z,0.4
2022-12-03T14:26:54.133Z,0.4
2022-12-03T14:28:56.081Z,0.4
2022-12-03T14:30:58.052Z,0.4
2022-12-03T14:33:00.039Z,0.4
2022-12-03T14:35:08.152Z,0.3
2022-12-03T14:39:09.261Z,0.4
2022-12-03T14:41:11.110Z,0.3
2022-12-03T14:43:13.097Z,0.4
2022-12-03T14:45:29.997Z,0.2
2022-12-03T14:47:31.831Z,0.2
2022-12-03T14:49:33.839Z,0.2
2022-12-03T14:51:38.941Z,0.2
2022-12-03T14:53:40.916Z,0.2
2022-12-03T14:55:42.904Z,0.2
2022-12-03T14:57:44.891Z,0.2
2022-12-03T14:59:46.902Z,0.2
2022-12-03T15:01:48.930Z,0.2
2022-12-03T15:03:50.827Z,0.2
2022-12-03T15:05:55.997Z,0.2
2022-12-03T15:07:58.109Z,0.2
2022-12-03T15:09:59.906Z,0.2
2022-12-03T15:12:03.416Z,0.2
2022-12-03T15:14:05.344Z,0.2
2022-12-03T15:16:07.327Z,0.2
2022-12-03T15:18:09.286Z,0.2
2022-12-03T15:20:14.448Z,0.2
2022-12-03T15:22:16.389Z,0.2
2022-12-03T15:24:18.316Z,0.2
2022-12-03T15:26:20.322Z,0.1
2022-12-03T15:28:22.298Z,0.1
2022-12-03T15:30:24.240Z,0.2
2022-12-03T15:32:26.204Z,0.2
2022-12-03T15:34:31.337Z,0.1
2022-12-03T15:36:33.305Z,0.1
2022-12-03T15:38:35.277Z,0.2
2022-12-03T15:39:37.859Z,0.1
2022-12-03T15:41:39.813Z,0.2
2022-12-03T15:43:41.792Z,0.1
2022-12-03T15:45:43.818Z,0.1
2022-12-03T16:04:07.815Z,0.1
2022-12-03T16:08:11.789Z,0.1
2022-12-03T16:10:13.721Z,0.1
2022-12-03T16:12:15.684Z,0.1
2022-12-03T16:16:22.859Z,0
2022-12-03T16:18:24.768Z,0
2022-12-03T16:20:26.728Z,0
2022-12-03T16:22:28.711Z,0
2022-12-03T16:24:30.699Z,0
2022-12-03T16:30:39.884Z,0.1
2022-12-03T16:32:41.758Z,0.1
2022-12-03T16:34:43.740Z,0
2022-12-03T16:35:46.289Z,0
2022-12-03T16:37:48.283Z,0
2022-12-03T16:39:50.234Z,0.1
2022-12-03T16:41:52.207Z,0.1
2022-12-03T16:43:57.329Z,0
2022-12-03T16:48:01.288Z,0
2022-12-03T16:50:03.271Z,0
2022-12-03T16:52:05.219Z,0
2022-12-03T16:54:07.184Z,0
2022-12-03T16:56:09.164Z,0
2022-12-03T16:58:14.310Z,0
2022-12-03T17:00:16.300Z,0
2022-12-03T17:02:18.276Z,0
2022-12-03T17:04:20.220Z,0
2022-12-03T17:06:22.210Z,0
2022-12-03T17:08:24.154Z,0
2022-12-03T17:13:00.675Z,0
2022-12-03T17:20:39.139Z,0
2022-12-03T17:22:41.120Z,0
2022-12-03T17:24:43.107Z,0
2022-12-03T17:26:49.245Z,0
2022-12-03T17:28:51.207Z,0
2022-12-03T17:30:53.266Z,0
2022-12-03T17:31:55.804Z,0
2022-12-03T17:33:57.717Z,0
2022-12-03T17:35:59.694Z,0
2022-12-03T17:38:01.685Z,0
2022-12-03T17:40:06.787Z,0
2022-12-03T17:42:08.769Z,0
2022-12-03T17:44:12.965Z,0
2022-12-03T17:46:12.804Z,0
2022-12-03T17:48:14.730Z,0
2022-12-03T17:50:16.724Z,0
2022-12-03T17:52:18.666Z,0
2022-12-03T17:54:23.804Z,0
2022-12-03T17:56:25.793Z,0
2022-12-03T17:58:27.758Z,0
2022-12-03T18:00:29.740Z,0
2022-12-03T18:02:31.700Z,0
2022-12-03T18:04:33.679Z,0
2022-12-03T18:06:35.660Z,0
2022-12-03T18:10:42.783Z,-0.1
2022-12-03T18:12:44.719Z,-0.1
2022-12-03T18:16:48.671Z,-0.1
2022-12-03T18:22:57.790Z,-0.1
2022-12-03T18:24:59.727Z,-0.1
2022-12-03T18:27:01.689Z,-0.1
2022-12-03T18:33:28.465Z,-0.1
2022-12-03T18:35:33.607Z,-0.2
2022-12-03T18:41:39.498Z,-0.1
2022-12-03T18:45:43.418Z,-0.2
2022-12-03T18:47:45.478Z,-0.1
2022-12-03T18:51:59.085Z,-0.1
2022-12-03T18:53:54.356Z,-0.1
2022-12-03T18:55:56.340Z,-0.2
2022-12-03T18:57:58.305Z,-0.1
2022-12-03T19:00:00.296Z,-0.2
2022-12-03T19:02:02.310Z,-0.2
2022-12-03T19:04:07.380Z,-0.2
2022-12-03T19:06:11.851Z,-0.2
2022-12-03T19:08:11.422Z,-0.2
2022-12-03T19:10:13.280Z,-0.2
2022-12-03T19:12:15.269Z,-0.2
2022-12-03T19:14:17.249Z,-0.1
2022-12-03T19:16:19.330Z,-0.1
2022-12-03T19:18:24.320Z,-0.2
2022-12-03T19:20:26.321Z,-0.2
2022-12-03T19:22:28.290Z,-0.2
2022-12-03T19:23:30.872Z,-0.2
2022-12-03T19:25:32.826Z,-0.2
2022-12-03T19:27:34.793Z,-0.2
2022-12-03T19:29:36.782Z,-0.2
2022-12-03T19:31:42.075Z,-0.2
2022-12-03T19:33:43.908Z,-0.3
2022-12-03T19:35:45.828Z,-0.2
2022-12-03T19:37:47.877Z,-0.2
2022-12-03T19:39:49.775Z,-0.2
2022-12-03T19:41:51.821Z,-0.2
2022-12-03T19:43:53.794Z,-0.2
2022-12-03T19:45:59.012Z,-0.2
2022-12-03T19:50:02.858Z,-0.2
2022-12-03T19:56:08.783Z,-0.2
2022-12-03T19:58:10.756Z,-0.2
2022-12-03T20:00:15.900Z,-0.2
2022-12-03T20:02:18.070Z,-0.2
2022-12-03T20:04:19.809Z,-0.3
2022-12-03T20:06:21.819Z,-0.2
2022-12-03T20:08:23.801Z,-0.2
2022-12-03T20:10:25.804Z,-0.2
2022-12-03T20:12:27.754Z,-0.2
2022-12-03T20:14:32.854Z,-0.3
2022-12-03T20:16:34.909Z,-0.3
2022-12-03T20:18:36.805Z,-0.2
2022-12-03T20:19:39.386Z,-0.3
2022-12-03T20:21:41.321Z,-0.2
2022-12-03T20:23:43.286Z,-0.3
2022-12-03T20:25:45.285Z,-0.2
2022-12-03T20:27:50.364Z,-0.3
2022-12-03T20:29:52.882Z,-0.2
2022-12-03T20:31:54.422Z,-0.3
2022-12-03T20:33:56.317Z,-0.3
2022-12-03T20:35:58.283Z,-0.3
2022-12-03T20:38:00.241Z,-0.3
2022-12-03T20:40:02.215Z,-0.2
2022-12-03T20:42:07.338Z,-0.3
2022-12-03T20:44:09.290Z,-0.3
2022-12-03T20:46:11.323Z,-0.3
2022-12-03T20:48:13.220Z,-0.3
2022-12-03T20:50:15.197Z,-0.3
2022-12-03T20:54:19.132Z,-0.3
2022-12-03T21:00:28.188Z,-0.3
2022-12-03T21:12:44.649Z,-0.4
2022-12-03T21:14:46.627Z,-0.4
2022-12-03T21:15:49.191Z,-0.4
2022-12-03T21:17:51.211Z,-0.4
2022-12-03T21:19:53.545Z,-0.4
2022-12-03T21:21:55.091Z,-0.4
2022-12-03T21:24:00.234Z,-0.4
2022-12-03T21:28:04.124Z,-0.4
2022-12-03T21:30:06.098Z,-0.5
2022-12-03T21:32:08.033Z,-0.5
2022-12-03T21:34:10.013Z,-0.5
2022-12-03T21:36:12.004Z,-0.5
2022-12-03T21:40:19.068Z,-0.4
2022-12-03T21:42:36.540Z,-0.4
2022-12-03T21:44:22.983Z,-0.4
2022-12-03T21:47:12.463Z,-0.4
2022-12-03T21:48:26.893Z,-0.4
2022-12-03T21:50:28.846Z,-0.4
2022-12-03T21:52:33.958Z,-0.4
2022-12-03T21:54:35.938Z,-0.4
2022-12-03T21:56:37.931Z,-0.4
2022-12-03T21:58:39.882Z,-0.3
2022-12-03T22:00:41.824Z,-0.4
2022-12-03T22:02:43.849Z,-0.3
2022-12-03T22:04:45.721Z,-0.3
2022-12-03T22:06:50.848Z,-0.3
2022-12-03T22:08:52.787Z,-0.3
2022-12-03T22:10:54.810Z,-0.3
2022-12-03T22:13:17.739Z,-0.3
2022-12-03T22:15:19.834Z,-0.3
2022-12-03T22:17:21.694Z,-0.3
2022-12-03T22:19:26.791Z,-0.3
2022-12-03T22:21:28.744Z,-0.3
2022-12-03T22:23:30.685Z,-0.3
2022-12-03T22:25:32.675Z,-0.3
2022-12-03T22:27:34.672Z,-0.3
2022-12-03T22:29:36.611Z,-0.3
2022-12-03T22:31:38.581Z,-0.3
2022-12-03T22:33:43.693Z,-0.3
2022-12-03T22:35:45.663Z,-0.3
2022-12-03T22:37:47.632Z,-0.3
2022-12-03T22:39:49.576Z,-0.3
2022-12-03T22:48:00.579Z,-0.2
2022-12-03T22:50:02.525Z,-0.3
2022-12-03T22:52:04.507Z,-0.3
2022-12-03T22:54:06.463Z,-0.2
2022-12-03T22:56:08.458Z,-0.3
2022-12-03T22:58:10.415Z,-0.3
2022-12-03T23:00:12.402Z,-0.2
2022-12-03T23:02:17.548Z,-0.3
2022-12-03T23:04:19.536Z,-0.3
2022-12-03T23:06:21.436Z,-0.2
2022-12-03T23:07:23.993Z,-0.2
2022-12-03T23:09:26.031Z,-0.2
2022-12-03T23:11:27.939Z,-0.2
2022-12-03T23:13:29.879Z,-0.2
2022-12-03T23:15:35.057Z,-0.2
2022-12-03T23:17:36.984Z,-0.2
2022-12-03T23:19:38.991Z,-0.2
2022-12-03T23:21:40.914Z,-0.2
2022-12-03T23:23:42.887Z,-0.2
2022-12-03T23:25:44.873Z,-0.2
2022-12-03T23:29:52.095Z,-0.2
2022-12-03T23:31:53.902Z,-0.2
2022-12-03T23:33:55.990Z,-0.2
2022-12-03T23:35:57.839Z,-0.2
2022-12-03T23:37:59.815Z,-0.2
2022-12-03T23:40:01.765Z,-0.2
2022-12-03T23:42:03.710Z,-0.2
2022-12-03T23:44:08.845Z,-0.2
2022-12-03T23:46:10.902Z,-0.2
2022-12-03T23:48:12.767Z,-0.2
2022-12-03T23:50:14.717Z,-0.2
2022-12-03T23:52:16.686Z,-0.2
2022-12-03T23:54:18.662Z,-0.2
2022-12-03T23:56:20.619Z,-0.1
2022-12-03T23:58:25.740Z,-0.2
